Estación Meteorológica Peña el Pijo (Robertgarden) [ 02/03/23 02:57:37 CET ]

Fecha Hora Presion(HPa) Temp (°C) Humedad % Rocio (°C) Viento ( m/s) Direccion Lluvia 1Hora(mm) Lluvia 24H(mm) LLuvia Total(mm)
2012-Jun-28 01:01:18 1013.600 18.4 56 9.4         167.83
2012-Jun-28 02:01:13 1013.500 17.3 61 9.7         167.83
2012-Jun-28 03:03:10 1013.200 16.1 66 9.8         167.83
2012-Jun-28 04:01:16 1012.900 15.3 66 9.0         167.83
2012-Jun-28 05:01:12 1012.300 16.3 61 8.8         167.83
2012-Jun-28 06:01:12 1012.000 16.8 60 9.0         167.83
2012-Jun-28 07:01:12 1012.100 15.3 65 8.8         167.83
2012-Jun-28 08:01:13 1012.200 15.3 71 10.1         167.83
2012-Jun-28 09:01:13 1011.900 20.9 62 13.4         167.83
2012-Jun-28 10:01:13 1011.300 28.2 41 13.7         167.83
2012-Jun-28 11:01:12 1011.400 33.8 21 8.3         167.83
2012-Jun-28 12:01:13 1011.400 34.9 15 3.7         167.83
2012-Jun-28 13:01:17 1011.100 36.7 14 4.2         167.83
2012-Jun-28 14:01:11 1010.700 36.8 13 3.2         167.83
2012-Jun-28 15:01:14 1010.300 36.7 12 2.2 0.5 W     167.83
2012-Jun-28 16:01:17 1010.300 37.8 12 3.0 1.5 ENE     167.83
2012-Jun-28 17:01:13 1009.900 38.2 12 3.3 1.7 SW     167.83
2012-Jun-28 18:01:17 1009.300 37.9 13 4.1         167.83
2012-Jun-28 19:01:14 1009.000 36.5 14 4.0         167.83
2012-Jun-28 20:01:13 1009.000 34.5 16 4.4         167.83
2012-Jun-28 21:01:16 1009.100 31.4 18 3.9         167.83
2012-Jun-28 22:01:14 1009.500 26.6 27 5.9         167.83
2012-Jun-28 23:01:13 1010.400 23.3 33 6.0         167.83

Temperatura Máxima:38°    Temperatura Mínima:15°
Presión Máxima:1013.600 Hpa    Presión Mínima:1009.000 Hpa


Volver